Terminal Aerodrome Forecast
Issued by NWS

Home | Current Version | Previous Version | Text Only | Print | Product List | Glossary On
Versions: 1 2 3 4 5 6 7 8 9 10 11 12
000
FTUS45 KABQ 011737
TAFGUP
TAF
KGUP 011737Z 0118/0218 19011KT P6SM SCT080
     FM012000 27008KT P6SM VCSH BKN080
      TEMPO 0120/0122 VRB15G25KT 6SM -TSRA BKN080CB
     FM012200 10011KT P6SM VCSH BKN090
     FM020200 VRB12G22KT P6SM VCTS BKN080CB
     FM020500 VRB06KT P6SM BKN090=

USA.gov is the U.S. government's official web portal to all federal, state and local government web resources and services.